createdAt,value
2023-05-14T00:00:55.936Z,0
2023-05-14T00:01:56.560Z,0
2023-05-14T00:02:57.326Z,0
2023-05-14T00:03:57.826Z,0
2023-05-14T00:04:58.380Z,0
2023-05-14T00:05:58.954Z,0
2023-05-14T00:06:59.556Z,0
2023-05-14T00:08:00.177Z,0
2023-05-14T00:09:00.745Z,0
2023-05-14T00:10:01.345Z,0
2023-05-14T00:11:01.952Z,0
2023-05-14T00:12:02.554Z,0
2023-05-14T00:13:03.146Z,0
2023-05-14T00:14:03.790Z,0
2023-05-14T00:15:04.383Z,0
2023-05-14T00:16:05.081Z,0
2023-05-14T00:17:05.676Z,0
2023-05-14T00:18:06.337Z,0
2023-05-14T00:19:06.996Z,0
2023-05-14T00:20:07.576Z,0
2023-05-14T00:21:08.166Z,0
2023-05-14T00:22:08.777Z,0
2023-05-14T00:23:09.359Z,0
2023-05-14T00:24:09.972Z,0
2023-05-14T00:25:10.577Z,0
2023-05-14T00:26:11.264Z,0
2023-05-14T00:27:11.860Z,0
2023-05-14T00:28:12.473Z,0
2023-05-14T00:29:13.052Z,0
2023-05-14T00:30:13.655Z,0
2023-05-14T00:31:14.281Z,0
2023-05-14T00:32:14.863Z,0
2023-05-14T00:33:15.462Z,0
2023-05-14T00:34:16.068Z,0
2023-05-14T00:35:16.666Z,0
2023-05-14T00:36:17.263Z,0
2023-05-14T00:37:17.876Z,0
2023-05-14T00:38:18.471Z,0
2023-05-14T00:39:19.070Z,0
2023-05-14T00:40:19.664Z,0
2023-05-14T00:41:20.254Z,0
2023-05-14T00:42:20.852Z,0
2023-05-14T00:43:21.449Z,0
2023-05-14T00:44:22.045Z,0
2023-05-14T00:45:22.645Z,0
2023-05-14T00:46:23.302Z,0
2023-05-14T00:47:23.952Z,0
2023-05-14T00:48:24.531Z,0
2023-05-14T00:49:25.115Z,0
2023-05-14T00:50:25.890Z,0
2023-05-14T00:51:26.657Z,0
2023-05-14T00:52:27.264Z,0
2023-05-14T00:53:27.855Z,0
2023-05-14T00:54:28.464Z,0
2023-05-14T00:55:29.044Z,0
2023-05-14T00:56:30.110Z,0
2023-05-14T00:57:30.702Z,0
2023-05-14T00:58:31.297Z,0
2023-05-14T00:59:31.900Z,0
2023-05-14T01:00:32.495Z,0
2023-05-14T01:01:33.161Z,0
2023-05-14T01:02:33.768Z,0
2023-05-14T01:03:34.426Z,0
2023-05-14T01:04:35.018Z,0
2023-05-14T01:05:35.617Z,0
2023-05-14T01:06:36.210Z,0
2023-05-14T01:07:36.804Z,0
2023-05-14T01:08:37.413Z,0
2023-05-14T01:09:38.024Z,0
2023-05-14T01:10:38.607Z,0
2023-05-14T01:11:39.202Z,0
2023-05-14T01:12:39.797Z,0
2023-05-14T01:13:40.394Z,0
2023-05-14T01:14:40.993Z,0
2023-05-14T01:15:41.583Z,0
2023-05-14T01:16:42.244Z,0
2023-05-14T01:17:42.866Z,0
2023-05-14T01:18:43.501Z,0
2023-05-14T01:19:44.082Z,0
2023-05-14T01:20:44.644Z,0
2023-05-14T01:21:45.241Z,0
2023-05-14T01:22:45.832Z,0
2023-05-14T01:23:46.448Z,0
2023-05-14T01:24:47.049Z,0
2023-05-14T01:25:47.643Z,0
2023-05-14T01:26:48.233Z,0
2023-05-14T01:27:48.826Z,0
2023-05-14T01:28:49.420Z,0
2023-05-14T01:29:50.037Z,0
2023-05-14T01:30:50.648Z,0
2023-05-14T01:31:51.382Z,0
2023-05-14T01:32:52.025Z,0
2023-05-14T01:33:52.624Z,0
2023-05-14T01:34:53.290Z,0
2023-05-14T01:35:53.883Z,0
2023-05-14T01:36:54.508Z,0
2023-05-14T01:37:55.095Z,0
2023-05-14T01:38:55.688Z,0
2023-05-14T01:39:56.284Z,0
2023-05-14T01:40:56.899Z,0
2023-05-14T01:41:57.492Z,0
2023-05-14T01:42:58.111Z,0
2023-05-14T01:43:58.701Z,0
2023-05-14T01:44:59.295Z,0
2023-05-14T01:45:59.945Z,0
2023-05-14T01:47:00.501Z,0
2023-05-14T01:48:01.169Z,0
2023-05-14T01:49:01.716Z,0
2023-05-14T01:50:02.319Z,0
2023-05-14T01:51:02.925Z,0
2023-05-14T01:52:03.506Z,0
2023-05-14T01:53:04.096Z,0
2023-05-14T01:54:04.695Z,0
2023-05-14T01:55:05.307Z,0
2023-05-14T01:56:05.902Z,0
2023-05-14T01:57:06.498Z,0
2023-05-14T01:58:07.093Z,0
2023-05-14T01:59:07.688Z,0
2023-05-14T02:00:08.287Z,0
2023-05-14T02:01:08.935Z,0
2023-05-14T02:02:09.486Z,0
2023-05-14T02:03:10.120Z,0
2023-05-14T02:04:10.710Z,0
2023-05-14T02:05:11.299Z,0
2023-05-14T02:06:11.886Z,0
2023-05-14T02:07:12.478Z,0
2023-05-14T02:08:13.080Z,0
2023-05-14T02:09:13.669Z,0
2023-05-14T02:10:14.264Z,0
2023-05-14T02:11:14.871Z,0
2023-05-14T02:12:15.456Z,0
2023-05-14T02:13:16.049Z,0
2023-05-14T02:14:16.656Z,0
2023-05-14T02:15:17.255Z,0
2023-05-14T02:16:17.868Z,0
2023-05-14T02:17:18.457Z,0
2023-05-14T02:18:19.048Z,0
2023-05-14T02:19:19.638Z,0
2023-05-14T02:20:20.235Z,0
2023-05-14T02:21:20.843Z,0
2023-05-14T02:22:21.451Z,0
2023-05-14T02:23:31.002Z,0
2023-05-14T02:24:22.656Z,0
2023-05-14T02:25:23.270Z,0
2023-05-14T02:26:23.866Z,0
2023-05-14T02:27:24.460Z,0
2023-05-14T02:28:25.089Z,0
2023-05-14T02:29:25.671Z,0
2023-05-14T02:30:26.281Z,0
2023-05-14T02:31:26.933Z,0
2023-05-14T02:32:27.603Z,0
2023-05-14T02:33:28.175Z,0
2023-05-14T02:34:28.746Z,0
2023-05-14T02:35:29.344Z,0
2023-05-14T02:36:29.943Z,0
2023-05-14T02:37:30.535Z,0
2023-05-14T02:38:31.133Z,0
2023-05-14T02:39:31.726Z,0
2023-05-14T02:40:32.324Z,0
2023-05-14T02:41:32.949Z,0
2023-05-14T02:42:33.535Z,0
2023-05-14T02:43:34.132Z,0
2023-05-14T02:44:34.748Z,0
2023-05-14T02:45:35.365Z,0
2023-05-14T02:46:36.021Z,0
2023-05-14T02:47:38.209Z,0
2023-05-14T02:48:38.160Z,0
2023-05-14T02:49:38.751Z,0
2023-05-14T02:50:39.367Z,4
2023-05-14T02:51:39.972Z,4
2023-05-14T02:52:40.558Z,4
2023-05-14T02:53:41.164Z,4
2023-05-14T02:54:41.770Z,4
2023-05-14T02:55:42.371Z,4
2023-05-14T02:56:42.995Z,4
2023-05-14T02:57:43.576Z,4
2023-05-14T02:58:44.190Z,8
2023-05-14T02:59:44.803Z,8
2023-05-14T03:00:45.855Z,12
2023-05-14T03:01:46.470Z,12
2023-05-14T03:02:47.094Z,12
2023-05-14T03:03:48.108Z,12
2023-05-14T03:04:48.721Z,16
2023-05-14T03:05:49.316Z,20
2023-05-14T03:06:49.916Z,20
2023-05-14T03:07:50.515Z,24
2023-05-14T03:08:51.118Z,28
2023-05-14T03:09:51.703Z,32
2023-05-14T03:10:52.290Z,32
2023-05-14T03:11:52.883Z,44
2023-05-14T03:12:53.484Z,48
2023-05-14T03:13:54.083Z,52
2023-05-14T03:14:54.672Z,60
2023-05-14T03:15:55.267Z,68
2023-05-14T03:16:55.925Z,80
2023-05-14T03:17:56.496Z,92
2023-05-14T03:18:57.116Z,104
2023-05-14T03:19:57.697Z,112
2023-05-14T03:20:58.313Z,128
2023-05-14T03:21:58.931Z,144
2023-05-14T03:22:59.526Z,160
2023-05-14T03:24:00.137Z,180
2023-05-14T03:25:00.747Z,200
2023-05-14T03:26:01.340Z,224
2023-05-14T03:27:01.933Z,244
2023-05-14T03:28:02.562Z,272
2023-05-14T03:29:03.150Z,296
2023-05-14T03:30:03.746Z,328
2023-05-14T03:31:04.395Z,356
2023-05-14T03:32:04.957Z,388
2023-05-14T03:33:05.612Z,420
2023-05-14T03:34:06.172Z,460
2023-05-14T03:35:06.766Z,492
2023-05-14T03:36:07.383Z,536
2023-05-14T03:37:07.992Z,576
2023-05-14T03:38:08.575Z,620
2023-05-14T03:39:09.181Z,664
2023-05-14T03:40:09.795Z,716
2023-05-14T03:41:10.397Z,764
2023-05-14T03:42:11.011Z,812
2023-05-14T03:43:11.694Z,864
2023-05-14T03:44:12.238Z,920
2023-05-14T03:45:12.837Z,976
2023-05-14T03:46:13.455Z,1032
2023-05-14T03:47:14.057Z,1088
2023-05-14T03:48:14.708Z,1152
2023-05-14T03:49:15.288Z,1212
2023-05-14T03:50:15.887Z,1276
2023-05-14T03:51:16.490Z,1340
2023-05-14T03:52:17.090Z,1408
2023-05-14T03:53:17.707Z,1476
2023-05-14T03:54:18.311Z,1544
2023-05-14T03:55:18.932Z,1612
2023-05-14T03:56:19.531Z,1684
2023-05-14T03:57:20.146Z,1748
2023-05-14T03:58:20.750Z,1820
2023-05-14T03:59:21.345Z,1892
2023-05-14T04:00:22.096Z,1968
2023-05-14T04:01:22.819Z,2040
2023-05-14T04:02:23.570Z,2116
2023-05-14T04:03:24.345Z,2192
2023-05-14T04:04:25.149Z,2268
2023-05-14T04:05:25.706Z,2340
2023-05-14T04:06:26.307Z,2416
2023-05-14T04:07:26.914Z,2500
2023-05-14T04:08:27.508Z,2576
2023-05-14T04:09:28.109Z,2652
2023-05-14T04:10:28.710Z,2736
2023-05-14T04:11:29.332Z,2816
2023-05-14T04:12:29.927Z,2896
2023-05-14T04:13:30.527Z,2972
2023-05-14T04:14:31.124Z,3052
2023-05-14T04:15:31.791Z,3132
2023-05-14T04:16:32.405Z,3212
2023-05-14T04:17:34.563Z,3288
2023-05-14T04:18:33.628Z,3368
2023-05-14T04:19:34.251Z,3452
2023-05-14T04:20:34.832Z,3532
2023-05-14T04:21:35.430Z,3608
2023-05-14T04:22:36.035Z,3680
2023-05-14T04:23:36.633Z,3756
2023-05-14T04:24:37.231Z,3832
2023-05-14T04:25:37.830Z,3912
2023-05-14T04:26:38.433Z,3984
2023-05-14T04:27:39.051Z,4060
2023-05-14T04:28:39.649Z,4140
2023-05-14T04:29:40.248Z,4216
2023-05-14T04:30:40.874Z,4292
2023-05-14T04:31:41.524Z,4372
2023-05-14T04:32:42.162Z,4452
2023-05-14T04:33:42.736Z,4540
2023-05-14T04:34:43.328Z,4640
2023-05-14T04:35:43.945Z,4764
2023-05-14T04:36:44.542Z,4908
2023-05-14T04:37:45.144Z,5096
2023-05-14T04:38:45.749Z,5304
2023-05-14T04:39:46.343Z,5532
2023-05-14T04:40:46.940Z,5776
2023-05-14T04:41:47.540Z,6024
2023-05-14T04:42:48.191Z,6252
2023-05-14T04:43:48.790Z,6484
2023-05-14T04:44:49.388Z,6696
2023-05-14T04:45:50.010Z,6904
2023-05-14T04:46:50.598Z,7088
2023-05-14T04:47:51.303Z,7252
2023-05-14T04:48:51.933Z,7380
2023-05-14T04:49:52.556Z,7472
2023-05-14T04:50:53.220Z,7508
2023-05-14T04:51:53.808Z,7532
2023-05-14T04:52:54.410Z,7536
2023-05-14T04:53:55.014Z,7544
2023-05-14T04:54:55.611Z,7584
2023-05-14T04:55:56.210Z,7664
2023-05-14T04:56:56.808Z,7792
2023-05-14T04:57:57.410Z,7940
2023-05-14T04:58:58.029Z,8088
2023-05-14T04:59:58.645Z,8268
2023-05-14T05:00:59.285Z,8456
2023-05-14T05:01:59.863Z,8616
2023-05-14T05:03:00.702Z,8772
2023-05-14T05:04:01.390Z,8884
2023-05-14T05:05:01.945Z,8996
2023-05-14T05:06:02.563Z,9124
2023-05-14T05:07:03.159Z,9240
2023-05-14T05:08:03.757Z,9400
2023-05-14T05:09:04.380Z,9612
2023-05-14T05:10:04.983Z,9796
2023-05-14T05:11:05.598Z,9928
2023-05-14T05:12:06.214Z,10020
2023-05-14T05:13:06.797Z,10020
2023-05-14T05:14:07.407Z,9948
2023-05-14T05:15:08.023Z,9852
2023-05-14T05:16:08.654Z,9716
2023-05-14T05:17:09.244Z,9600
2023-05-14T05:18:09.859Z,9492
2023-05-14T05:19:10.500Z,9412
2023-05-14T05:20:11.091Z,9288
2023-05-14T05:21:11.657Z,9160
2023-05-14T05:22:12.255Z,9068
2023-05-14T05:23:12.859Z,9112
2023-05-14T05:24:13.478Z,9192
2023-05-14T05:25:14.081Z,9252
2023-05-14T05:26:14.693Z,9332
2023-05-14T05:27:15.295Z,9432
2023-05-14T05:28:15.891Z,9584
2023-05-14T05:29:16.493Z,9736
2023-05-14T05:30:17.092Z,9932
2023-05-14T05:31:19.635Z,10112
2023-05-14T05:32:19.289Z,10280
2023-05-14T05:33:19.891Z,10436
2023-05-14T05:34:20.494Z,10524
2023-05-14T05:35:21.129Z,10612
2023-05-14T05:36:21.717Z,10652
2023-05-14T05:37:22.315Z,10672
2023-05-14T05:38:22.916Z,10672
2023-05-14T05:39:23.529Z,10644
2023-05-14T05:40:24.369Z,10600
2023-05-14T05:41:25.102Z,10428
2023-05-14T05:42:25.694Z,10524
2023-05-14T05:43:26.291Z,10600
2023-05-14T05:44:26.892Z,10720
2023-05-14T05:45:27.494Z,10812
2023-05-14T05:46:28.131Z,10700
2023-05-14T05:47:28.745Z,10896
2023-05-14T05:48:29.296Z,11084
2023-05-14T05:49:29.895Z,11236
2023-05-14T05:50:30.503Z,11528
2023-05-14T05:51:31.119Z,11800
2023-05-14T05:52:31.722Z,12000
2023-05-14T05:53:32.323Z,12360
2023-05-14T05:54:32.921Z,12788
2023-05-14T05:55:33.535Z,13108
2023-05-14T05:56:34.123Z,13344
2023-05-14T05:57:34.731Z,13540
2023-05-14T05:58:35.321Z,13716
2023-05-14T05:59:35.926Z,14000
2023-05-14T06:00:36.531Z,14176
2023-05-14T06:01:37.239Z,14356
2023-05-14T06:02:37.943Z,14696
2023-05-14T06:03:38.662Z,14884
2023-05-14T06:04:39.268Z,15064
2023-05-14T06:05:39.885Z,15284
2023-05-14T06:06:40.451Z,15344
2023-05-14T06:07:41.071Z,15420
2023-05-14T06:08:41.674Z,15660
2023-05-14T06:09:42.279Z,15684
2023-05-14T06:10:42.873Z,15520
2023-05-14T06:11:43.669Z,15992
2023-05-14T06:12:44.221Z,16160
2023-05-14T06:13:44.819Z,16300
2023-05-14T06:14:45.431Z,16496
2023-05-14T06:15:46.050Z,16824
2023-05-14T06:16:46.707Z,17020
2023-05-14T06:17:47.426Z,17588
2023-05-14T06:18:48.028Z,17416
2023-05-14T06:19:48.628Z,17824
2023-05-14T06:20:49.198Z,18976
2023-05-14T06:21:49.797Z,19968
2023-05-14T06:22:50.408Z,20064
2023-05-14T06:23:51.002Z,20608
2023-05-14T06:24:51.604Z,22304
2023-05-14T06:25:52.224Z,22688
2023-05-14T06:26:52.832Z,22272
2023-05-14T06:27:53.451Z,22080
2023-05-14T06:28:54.051Z,23040
2023-05-14T06:29:54.654Z,22528
2023-05-14T06:30:55.263Z,23904
2023-05-14T06:31:55.885Z,22016
2023-05-14T06:32:56.493Z,23904
2023-05-14T06:33:57.081Z,21952
2023-05-14T06:34:57.703Z,24000
2023-05-14T06:35:58.307Z,23488
2023-05-14T06:36:58.928Z,24896
2023-05-14T06:37:59.532Z,28032
2023-05-14T06:39:00.137Z,30880
2023-05-14T06:40:00.737Z,31584
2023-05-14T06:41:01.396Z,30304
2023-05-14T06:42:01.987Z,28736
2023-05-14T06:43:02.588Z,27776
2023-05-14T06:44:03.186Z,28576
2023-05-14T06:45:03.792Z,29440
2023-05-14T06:46:04.394Z,29376
2023-05-14T06:47:05.002Z,30336
2023-05-14T06:48:05.646Z,33184
2023-05-14T06:49:06.267Z,34944
2023-05-14T06:50:07.549Z,34848
2023-05-14T06:51:07.461Z,33472
2023-05-14T06:52:08.065Z,32064
2023-05-14T06:53:08.664Z,32384
2023-05-14T06:54:09.275Z,35072
2023-05-14T06:55:09.873Z,39872
2023-05-14T06:56:10.474Z,43296
2023-05-14T06:57:11.103Z,41376
2023-05-14T06:58:11.697Z,34816
2023-05-14T06:59:12.316Z,30784
2023-05-14T07:00:12.924Z,31872
2023-05-14T07:01:13.580Z,36160
2023-05-14T07:02:14.150Z,40640
2023-05-14T07:03:14.746Z,41344
2023-05-14T07:04:15.364Z,40768
2023-05-14T07:05:15.992Z,43008
2023-05-14T07:06:16.600Z,44928
2023-05-14T07:07:17.213Z,44576
2023-05-14T07:08:17.837Z,43776
2023-05-14T07:09:18.471Z,43264
2023-05-14T07:10:19.074Z,43680
2023-05-14T07:11:19.678Z,45120
2023-05-14T07:12:20.295Z,44864
2023-05-14T07:13:20.900Z,43168
2023-05-14T07:14:21.522Z,41984
2023-05-14T07:15:22.128Z,45120
2023-05-14T07:16:22.743Z,50560
2023-05-14T07:17:23.568Z,54272
2023-05-14T07:18:24.200Z,52064
2023-05-14T07:19:24.798Z,46400
2023-05-14T07:20:25.615Z,46688
2023-05-14T07:21:26.015Z,50688
2023-05-14T07:22:26.619Z,51552
2023-05-14T07:23:27.220Z,49120
2023-05-14T07:24:27.823Z,52320
2023-05-14T07:25:28.457Z,52768
2023-05-14T07:26:29.150Z,55360
2023-05-14T07:27:29.754Z,58176
2023-05-14T07:28:30.377Z,57504
2023-05-14T07:29:30.977Z,54528
2023-05-14T07:30:31.589Z,55168
2023-05-14T07:31:32.417Z,52480
2023-05-14T07:32:33.028Z,53728
2023-05-14T07:33:33.625Z,54112
2023-05-14T07:34:34.246Z,51968
2023-05-14T07:35:34.861Z,52704
2023-05-14T07:36:35.447Z,52640
2023-05-14T07:37:36.052Z,63552
2023-05-14T07:38:36.652Z,62816
2023-05-14T07:39:37.254Z,61376
2023-05-14T07:40:37.851Z,59840
2023-05-14T07:41:38.457Z,57248
2023-05-14T07:42:39.079Z,56224
2023-05-14T07:43:39.680Z,55104
2023-05-14T07:44:40.286Z,55264
2023-05-14T07:45:40.888Z,54976
2023-05-14T07:46:41.486Z,59712
2023-05-14T07:47:42.167Z,52608
2023-05-14T07:48:42.829Z,45728
2023-05-14T07:49:43.448Z,43456
2023-05-14T07:50:44.050Z,59392
2023-05-14T07:51:44.672Z,60768
2023-05-14T07:52:45.279Z,60512
2023-05-14T07:53:45.881Z,55264
2023-05-14T07:54:47.473Z,53184
2023-05-14T07:55:48.078Z,54432
2023-05-14T07:56:48.682Z,60928
2023-05-14T07:57:49.284Z,64416
2023-05-14T07:58:49.887Z,57312
2023-05-14T07:59:50.485Z,65312
2023-05-14T08:00:51.096Z,48288
2023-05-14T08:01:51.750Z,47136
2023-05-14T08:02:52.649Z,31296
2023-05-14T08:03:53.537Z,33760
2023-05-14T08:04:54.197Z,29248
2023-05-14T08:05:54.801Z,26752
2023-05-14T08:06:55.402Z,28704
2023-05-14T08:07:56.002Z,22240
2023-05-14T08:08:56.604Z,22336
2023-05-14T08:09:57.205Z,21472
2023-05-14T08:10:57.844Z,22112
2023-05-14T08:11:58.407Z,20960
2023-05-14T08:12:59.025Z,21024
2023-05-14T08:13:59.612Z,22080
2023-05-14T08:15:00.245Z,23776
2023-05-14T08:16:00.848Z,23264
2023-05-14T08:17:01.445Z,22656
2023-05-14T08:18:02.041Z,22624
2023-05-14T08:19:02.714Z,26080
2023-05-14T08:20:03.296Z,22912
2023-05-14T08:21:04.048Z,23648
2023-05-14T08:22:04.511Z,27776
2023-05-14T08:23:05.140Z,30528
2023-05-14T08:24:05.758Z,25248
2023-05-14T08:25:06.413Z,32064
2023-05-14T08:26:07.008Z,46400
2023-05-14T08:27:07.625Z,52832
2023-05-14T08:28:08.216Z,49216
2023-05-14T08:29:10.446Z,43424
2023-05-14T08:30:10.414Z,41632
2023-05-14T08:31:11.041Z,49920
2023-05-14T08:32:19.756Z,55456
2023-05-14T08:33:12.265Z,69248
2023-05-14T08:34:12.840Z,72416
2023-05-14T08:35:13.442Z,70464
2023-05-14T08:36:14.071Z,64320
2023-05-14T08:37:14.687Z,62528
2023-05-14T08:38:15.297Z,62624
2023-05-14T08:39:15.899Z,62624
2023-05-14T08:40:16.533Z,52384
2023-05-14T08:41:17.130Z,44608
2023-05-14T08:42:17.724Z,43872
2023-05-14T08:43:18.327Z,48704
2023-05-14T08:44:18.928Z,55008
2023-05-14T08:45:19.537Z,62016
2023-05-14T08:46:20.137Z,36352
2023-05-14T08:47:20.739Z,76160
2023-05-14T08:48:21.432Z,74784
2023-05-14T08:49:22.010Z,25984
2023-05-14T08:50:23.585Z,69504
2023-05-14T08:51:24.224Z,78720
2023-05-14T08:52:24.824Z,73376
2023-05-14T08:53:25.431Z,42432
2023-05-14T08:54:26.029Z,27424
2023-05-14T08:55:26.640Z,26496
2023-05-14T08:56:27.253Z,28512
2023-05-14T08:57:27.867Z,31520
2023-05-14T08:58:28.458Z,41952
2023-05-14T08:59:29.060Z,61024
2023-05-14T09:00:29.661Z,64832
2023-05-14T09:01:30.269Z,86976
2023-05-14T09:02:30.879Z,87360
2023-05-14T09:03:31.540Z,51968
2023-05-14T09:04:32.084Z,41088
2023-05-14T09:05:32.706Z,72960
2023-05-14T09:06:33.306Z,83808
2023-05-14T09:07:33.911Z,100256
2023-05-14T09:08:34.578Z,112352
2023-05-14T09:09:35.181Z,69760
2023-05-14T09:10:35.788Z,38656
2023-05-14T09:11:36.388Z,68384
2023-05-14T09:12:36.987Z,83296
2023-05-14T09:13:37.592Z,71136
2023-05-14T09:14:38.196Z,43840
2023-05-14T09:15:38.796Z,37216
2023-05-14T09:16:39.455Z,45920
2023-05-14T09:17:40.073Z,66592
2023-05-14T09:18:40.714Z,52512
2023-05-14T09:19:41.255Z,82848
2023-05-14T09:20:41.875Z,36096
2023-05-14T09:21:42.481Z,34464
2023-05-14T09:22:43.083Z,69312
2023-05-14T09:23:43.687Z,37216
2023-05-14T09:24:44.287Z,33984
2023-05-14T09:25:44.888Z,35968
2023-05-14T09:26:45.491Z,67936
2023-05-14T09:27:46.104Z,104864
2023-05-14T09:28:46.702Z,106976
2023-05-14T09:29:47.304Z,113472
2023-05-14T09:30:47.928Z,105696
2023-05-14T09:31:48.563Z,67744
2023-05-14T09:32:49.177Z,105280
2023-05-14T09:33:49.737Z,99392
2023-05-14T09:34:50.358Z,108512
2023-05-14T09:35:50.964Z,94592
2023-05-14T09:36:51.563Z,100416
2023-05-14T09:37:52.169Z,97280
2023-05-14T09:38:52.767Z,87232
2023-05-14T09:39:53.369Z,105856
2023-05-14T09:40:53.975Z,101824
2023-05-14T09:41:54.577Z,80320
2023-05-14T09:42:55.197Z,77440
2023-05-14T09:43:55.798Z,116320
2023-05-14T09:44:56.396Z,83264
2023-05-14T09:45:57.016Z,65120
2023-05-14T09:46:57.632Z,59584
2023-05-14T09:47:58.349Z,64960
2023-05-14T09:48:58.998Z,69760
2023-05-14T09:49:59.601Z,66400
2023-05-14T09:51:00.575Z,67712
2023-05-14T09:52:01.801Z,90080
2023-05-14T09:53:02.401Z,110048
2023-05-14T09:54:03.019Z,115808
2023-05-14T09:55:03.627Z,105824
2023-05-14T09:56:04.238Z,82976
2023-05-14T09:57:04.855Z,56256
2023-05-14T09:58:05.458Z,28768
2023-05-14T09:59:06.070Z,26880
2023-05-14T10:00:06.703Z,25664
2023-05-14T10:01:07.373Z,25472
2023-05-14T10:02:07.946Z,25280
2023-05-14T10:03:08.593Z,26080
2023-05-14T10:04:09.180Z,27360
2023-05-14T10:05:09.854Z,28544
2023-05-14T10:06:10.430Z,29344
2023-05-14T10:07:11.044Z,29920
2023-05-14T10:08:11.652Z,29504
2023-05-14T10:09:12.258Z,29088
2023-05-14T10:10:12.877Z,29888
2023-05-14T10:11:13.484Z,30080
2023-05-14T10:12:14.101Z,29600
2023-05-14T10:13:14.708Z,27936
2023-05-14T10:14:15.325Z,29056
2023-05-14T10:15:15.927Z,56352
2023-05-14T10:16:16.559Z,144352
2023-05-14T10:17:17.246Z,147328
2023-05-14T10:18:17.871Z,145440
2023-05-14T10:19:18.537Z,139072
2023-05-14T10:20:19.163Z,124736
2023-05-14T10:21:19.757Z,57952
2023-05-14T10:22:20.362Z,36640
2023-05-14T10:23:20.966Z,35008
2023-05-14T10:24:21.570Z,34272
2023-05-14T10:25:22.169Z,34336
2023-05-14T10:26:24.074Z,36000
2023-05-14T10:27:24.370Z,80480
2023-05-14T10:28:24.974Z,108864
2023-05-14T10:29:25.571Z,95168
2023-05-14T10:30:26.397Z,99584
2023-05-14T10:31:27.140Z,111712
2023-05-14T10:32:27.753Z,116160
2023-05-14T10:33:28.324Z,116544
2023-05-14T10:34:28.926Z,109280
2023-05-14T10:35:29.557Z,108256
2023-05-14T10:36:30.135Z,102592
2023-05-14T10:37:30.735Z,92736
2023-05-14T10:38:31.357Z,95744
2023-05-14T10:39:31.962Z,53472
2023-05-14T10:40:32.563Z,35744
2023-05-14T10:41:33.166Z,35328
2023-05-14T10:42:33.793Z,37024
2023-05-14T10:43:34.393Z,111328
2023-05-14T10:44:34.997Z,67904
2023-05-14T10:45:35.597Z,67040
2023-05-14T10:46:36.217Z,110816
2023-05-14T10:47:36.861Z,130080
2023-05-14T10:48:37.425Z,156768
2023-05-14T10:49:43.359Z,148224
2023-05-14T10:50:39.626Z,138208
2023-05-14T10:51:40.313Z,124864
2023-05-14T10:52:40.951Z,125088
2023-05-14T10:53:41.561Z,86720
2023-05-14T10:54:42.143Z,124032
2023-05-14T10:55:42.750Z,103840
2023-05-14T10:56:43.386Z,74848
2023-05-14T10:57:43.982Z,95488
2023-05-14T10:58:44.579Z,124096
2023-05-14T10:59:45.183Z,124512
2023-05-14T11:00:45.785Z,113024
2023-05-14T11:01:46.405Z,118240
2023-05-14T11:02:47.224Z,131968
2023-05-14T11:03:47.856Z,135744
2023-05-14T11:04:48.438Z,142240
2023-05-14T11:05:49.062Z,128192
2023-05-14T11:06:49.658Z,56992
2023-05-14T11:07:50.259Z,113184
2023-05-14T11:08:50.869Z,84128
2023-05-14T11:09:51.465Z,106976
2023-05-14T11:10:52.089Z,101088
2023-05-14T11:11:52.694Z,126784
2023-05-14T11:12:53.299Z,130016
2023-05-14T11:13:53.908Z,145984
2023-05-14T11:14:54.503Z,154496
2023-05-14T11:15:55.106Z,148736
2023-05-14T11:16:55.774Z,94496
2023-05-14T11:17:56.507Z,126176
2023-05-14T11:18:57.165Z,114272
2023-05-14T11:19:57.775Z,116736
2023-05-14T11:20:58.351Z,129088
2023-05-14T11:21:58.959Z,127520
2023-05-14T11:22:59.562Z,157056
2023-05-14T11:24:00.178Z,125440
2023-05-14T11:25:00.830Z,123232
2023-05-14T11:26:01.451Z,72960
2023-05-14T11:27:02.010Z,52128
2023-05-14T11:28:02.614Z,136000
2023-05-14T11:29:03.232Z,150880
2023-05-14T11:30:03.827Z,141248
2023-05-14T11:31:04.448Z,161984
2023-05-14T11:32:05.098Z,131328
2023-05-14T11:33:05.745Z,125536
2023-05-14T11:34:06.321Z,115008
2023-05-14T11:35:06.924Z,122080
2023-05-14T11:36:07.552Z,135712
2023-05-14T11:37:08.153Z,156448
2023-05-14T11:38:09.372Z,149664
2023-05-14T11:39:09.937Z,139040
2023-05-14T11:40:10.534Z,135040
2023-05-14T11:41:11.137Z,129344
2023-05-14T11:42:11.758Z,124096
2023-05-14T11:43:12.363Z,131072
2023-05-14T11:44:12.967Z,169696
2023-05-14T11:45:13.651Z,137856
2023-05-14T11:46:14.249Z,104704
2023-05-14T11:47:14.821Z,111168
2023-05-14T11:48:15.497Z,103488
2023-05-14T11:49:16.056Z,93248
2023-05-14T11:50:16.721Z,89280
2023-05-14T11:51:17.343Z,95776
2023-05-14T11:52:17.897Z,116448
2023-05-14T11:53:18.499Z,114560
2023-05-14T11:54:19.105Z,54272
2023-05-14T11:55:19.711Z,51200
2023-05-14T11:56:20.311Z,80800
2023-05-14T11:57:20.957Z,103392
2023-05-14T11:58:21.527Z,112160
2023-05-14T11:59:22.130Z,104672
2023-05-14T12:00:22.930Z,110208
2023-05-14T12:01:23.714Z,123360
2023-05-14T12:02:24.365Z,143616
2023-05-14T12:03:25.084Z,106144
2023-05-14T12:04:25.911Z,158688
2023-05-14T12:05:26.476Z,137280
2023-05-14T12:06:27.082Z,135744
2023-05-14T12:07:27.684Z,134496
2023-05-14T12:08:28.284Z,121248
2023-05-14T12:09:28.889Z,144736
2023-05-14T12:10:29.492Z,145824
2023-05-14T12:11:30.097Z,53856
2023-05-14T12:12:30.701Z,51712
2023-05-14T12:13:31.349Z,50496
2023-05-14T12:14:31.910Z,49920
2023-05-14T12:15:32.512Z,50688
2023-05-14T12:16:33.986Z,52896
2023-05-14T12:17:33.751Z,56544
2023-05-14T12:18:34.425Z,84224
2023-05-14T12:19:35.071Z,54976
2023-05-14T12:20:35.675Z,53312
2023-05-14T12:21:36.277Z,53216
2023-05-14T12:22:37.196Z,53920
2023-05-14T12:23:37.791Z,59648
2023-05-14T12:24:38.417Z,62784
2023-05-14T12:25:39.019Z,95808
2023-05-14T12:26:39.642Z,102816
2023-05-14T12:27:40.245Z,97536
2023-05-14T12:28:40.858Z,83136
2023-05-14T12:29:41.452Z,80896
2023-05-14T12:30:42.057Z,87840
2023-05-14T12:31:42.703Z,97056
2023-05-14T12:32:43.296Z,102848
2023-05-14T12:33:43.875Z,118912
2023-05-14T12:34:44.476Z,127584
2023-05-14T12:35:45.088Z,117888
2023-05-14T12:36:45.694Z,126112
2023-05-14T12:37:46.317Z,91520
2023-05-14T12:38:46.890Z,85216
2023-05-14T12:39:47.501Z,85568
2023-05-14T12:40:48.104Z,97216
2023-05-14T12:41:48.729Z,112992
2023-05-14T12:42:49.329Z,145120
2023-05-14T12:43:49.954Z,146848
2023-05-14T12:44:50.566Z,140224
2023-05-14T12:45:51.180Z,103328
2023-05-14T12:46:51.847Z,70496
2023-05-14T12:47:52.433Z,82336
2023-05-14T12:48:53.450Z,79232
2023-05-14T12:49:54.124Z,103104
2023-05-14T12:50:54.783Z,179680
2023-05-14T12:52:07.718Z,180768
2023-05-14T12:52:55.995Z,142400
2023-05-14T12:53:56.596Z,130688
2023-05-14T12:54:57.201Z,119008
2023-05-14T12:55:57.804Z,95072
2023-05-14T12:56:58.418Z,91488
2023-05-14T12:57:59.013Z,111808
2023-05-14T12:58:59.616Z,141440
2023-05-14T13:00:00.237Z,168384
2023-05-14T13:01:00.930Z,169120
2023-05-14T13:02:01.468Z,62976
2023-05-14T13:03:02.149Z,46720
2023-05-14T13:04:02.701Z,50784
2023-05-14T13:05:03.287Z,38784
2023-05-14T13:06:03.893Z,38304
2023-05-14T13:07:04.497Z,39232
2023-05-14T13:08:05.100Z,44032
2023-05-14T13:09:05.706Z,67360
2023-05-14T13:10:06.317Z,42560
2023-05-14T13:11:06.932Z,50528
2023-05-14T13:12:07.542Z,56352
2023-05-14T13:13:08.158Z,41344
2023-05-14T13:14:08.742Z,42400
2023-05-14T13:15:09.343Z,54112
2023-05-14T13:16:10.026Z,64608
2023-05-14T13:17:10.593Z,60960
2023-05-14T13:18:11.220Z,56096
2023-05-14T13:19:11.928Z,37216
2023-05-14T13:20:12.552Z,42560
2023-05-14T13:21:13.179Z,64928
2023-05-14T13:22:13.793Z,40416
2023-05-14T13:23:14.415Z,38048
2023-05-14T13:24:15.016Z,36000
2023-05-14T13:25:15.627Z,34848
2023-05-14T13:26:16.249Z,35392
2023-05-14T13:27:16.857Z,36256